Latest Weather Observations for Cape Moreton

IDQ60801

Issued at 3:22 pm EST Thursday 28 May 2020 (issued every 10 minutes, with the page automatically refreshed every 10 minutes)

About weather observations | Map of weather stations | Latest weather observations for QLD | Other Formats
Station Details ID: 040043 Name: CAPE MORETON LIGHTHOUSE Lat: -27.03 Lon: 153.47 Height: 99.9 m
Data from the previous 72 hours. | See also: Recent months at Cape Moreton
Date/Time
EST
Temp
°C
App
Temp
°C
Dew
Point
°C
Rel
Hum
%
Delta-T
°C
Wind Press
QNH
hPa
Press
MSL
hPa
Rain since
9am
mm
Dir  Spd
km/h
Gust
km/h
Spd
kts
Gust
kts
28/03:00pm 20.7 19.7 14.6 68 3.6 SSE 13 19 7 10 1018.0 1017.7 0.0
28/02:30pm 21.3 21.1 15.8 71 3.3 SSE 11 15 6 8 1018.1 1017.8 0.0
28/02:00pm 21.6 21.4 15.7 69 3.5 SE 11 15 6 8 1018.5 1018.2 0.0
28/01:30pm 21.4 20.9 15.9 71 3.3 SSE 13 17 7 9 1018.6 1018.3 0.0
28/01:00pm 21.6 21.0 15.7 69 3.5 SSE 13 20 7 11 1018.9 1018.6 0.0
28/12:30pm 20.6 19.2 14.5 68 3.6 SSE 15 20 8 11 1019.1 1018.8 0.0
28/12:00pm 21.5 20.4 14.4 64 4.2 SSE 13 17 7 9 1019.5 1019.2 0.0
28/11:30am 21.7 20.9 15.1 66 3.9 SE 13 17 7 9 1020.0 1019.7 0.0
28/11:00am 21.5 21.0 13.9 62 4.4 SE 9 13 5 7 1020.3 1020.0 0.0
28/10:30am 20.9 20.8 13.4 62 4.3 WSW 6 9 3 5 1020.7 1020.5 0.0
28/10:00am 20.9 21.3 13.6 63 4.2 SW 4 7 2 4 1020.5 1020.3 0.0
28/09:30am 20.1 19.3 11.8 59 4.6 WSW 7 9 4 5 1020.7 1020.5 0.0
28/09:00am 19.3 18.2 12.1 63 4.0 W 9 11 5 6 1021.0 1020.8 0.0
28/08:30am 19.3 18.2 12.1 63 4.0 SW 9 11 5 6 1020.6 1020.4 0.0
28/08:00am 18.0 16.0 11.6 66 3.5 WSW 13 15 7 8 1020.9 1020.7 0.0
28/07:30am 18.2 16.6 11.7 66 3.6 SW 11 13 6 7 1020.4 1020.1 0.0
28/07:00am 18.1 17.2 11.4 65 3.7 SW 7 9 4 5 1020.0 1019.7 0.0
28/06:30am 17.8 16.7 11.8 68 3.3 SW 9 11 5 6 1019.7 1019.4 0.0
28/06:00am 17.4 15.5 11.7 69 3.1 SW 13 15 7 8 1019.5 1019.2 0.0
28/05:30am 17.4 15.0 11.4 68 3.3 SW 15 17 8 9 1018.9 1018.6 0.0
28/05:00am 17.3 14.6 11.8 70 3.0 WSW 17 19 9 10 1018.4 1018.1 0.0
28/04:30am 17.1 14.1 12.0 72 2.8 WSW 19 22 10 12 1018.7 1018.4 0.0
28/04:00am 17.1 14.1 12.0 72 2.8 W 19 20 10 11 1018.9 1018.6 0.0
28/03:30am 17.0 14.7 12.9 77 2.3 WSW 17 20 9 11 1018.9 1018.6 0.0
28/03:00am 17.0 14.9 13.5 80 2.0 W 17 19 9 10 1019.1 1018.8 0.0
28/02:30am 17.1 15.2 14.2 83 1.7 W 17 19 9 10 1018.9 1018.6 0.0
28/02:00am 17.2 15.4 14.5 84 1.6 W 17 19 9 10 1019.2 1018.9 0.0
28/01:30am 18.4 16.7 12.4 68 3.4 NW 13 17 7 9 1019.4 1019.1 0.0
28/01:00am 19.0 17.2 10.8 59 4.5 N 11 15 6 8 1019.3 1019.0 0.0
28/12:30am 18.9 17.1 11.0 60 4.3 NNW 11 13 6 7 1019.4 1019.1 0.0
28/12:00am 19.0 17.6 10.8 59 4.4 N 9 13 5 7 1019.9 1019.6 0.0
 
Date/Time
EST
Temp
°C
App
Temp
°C
Dew
Point
°C
Rel
Hum
%
Delta-T
°C
Wind Press
QNH
hPa
Press
MSL
hPa
Rain since
9am
mm
Dir  Spd
km/h
Gust
km/h
Spd
kts
Gust
kts
27/11:30pm 19.1 18.2 10.6 58 4.6 NNW 6 7 3 4 1020.0 1019.7 0.0
27/11:00pm 19.1 17.6 10.6 58 4.6 N 9 13 5 7 1019.9 1019.6 0.0
27/10:30pm 19.1 17.7 10.9 59 4.5 N 9 11 5 6 1019.9 1019.6 0.0
27/10:00pm 19.0 17.7 11.1 60 4.3 N 9 13 5 7 1020.0 1019.7 0.0
27/09:30pm 18.8 17.0 10.9 60 4.3 NNE 11 15 6 8 1019.7 1019.4 0.0
27/09:00pm 18.7 16.5 10.8 60 4.3 NNE 13 15 7 8 1019.8 1019.5 0.0
27/08:30pm 18.8 16.5 10.4 58 4.5 NNE 13 19 7 10 1019.8 1019.5 0.0
27/08:00pm 18.9 16.3 9.4 54 5.0 NNE 13 17 7 9 1019.3 1019.0 0.0
27/07:30pm 19.0 16.4 9.5 54 5.0 NE 13 17 7 9 1019.0 1018.7 0.0
27/07:00pm 18.9 17.1 10.7 59 4.4 N 11 15 6 8 1019.3 1019.0 0.0
27/06:30pm 18.7 16.7 11.5 63 4.0 NE 13 15 7 8 1018.6 1018.3 0.0
27/06:00pm 18.7 17.5 12.7 68 3.4 ENE 11 15 6 8 1018.6 1018.3 0.0
27/05:30pm 18.8 17.9 12.5 67 3.5 NNE 9 11 5 6 1018.9 1018.6 0.0
27/05:00pm 18.7 18.5 13.6 72 2.9 NNE 7 11 4 6 1018.8 1018.5 0.0
27/04:30pm 18.8 18.8 14.1 74 2.7 ENE 7 11 4 6 1018.5 1018.2 0.0
27/04:00pm 19.3 18.4 13.7 70 3.2 E 11 13 6 7 1018.0 1017.7 0.0
27/03:30pm 19.7 18.9 13.9 69 3.4 E 11 13 6 7 1018.0 1017.7 0.0
27/03:00pm 19.9 19.2 14.3 70 3.3 ESE 11 13 6 7 1018.0 1017.7 0.0
27/02:30pm 20.2 18.9 13.6 66 3.8 SE 13 15 7 8 1018.3 1018.0 0.0
27/02:00pm 20.6 19.2 13.3 63 4.2 ESE 13 15 7 8 1018.3 1018.0 0.0
27/01:30pm 20.9 19.6 12.6 59 4.7 SE 11 13 6 7 1018.3 1018.0 0.0
27/01:00pm 21.3 20.1 11.6 54 5.4 SE 9 13 5 7 1018.6 1018.3 0.0
27/12:30pm 21.9 21.4 12.7 56 5.3 ESE 7 11 4 6 1018.7 1018.4 0.0
27/12:00pm 21.7 21.2 12.5 56 5.2 S 7 13 4 7 1019.1 1018.8 0.0
27/11:30am 22.8 21.4 8.9 41 7.5 ENE 6 9 3 5 1019.8 1019.5 0.0
27/11:00am 20.8 20.3 12.2 58 4.8 E 6 7 3 4 1020.2 1019.9 0.0
27/10:30am 20.1 20.0 12.1 60 4.5 SSW 4 7 2 4 1020.4 1020.1 0.0
27/10:00am 19.8 19.8 13.5 67 3.6 SSW 6 11 3 6 1020.4 1020.1 0.0
27/09:30am 18.4 17.4 13.3 72 2.9 WSW 11 15 6 8 1020.6 1020.4 0.0
27/09:00am 18.2 17.3 12.6 70 3.1 NW 9 13 5 7 1020.5 1020.3 0.0
27/08:30am 17.8 17.3 12.0 69 3.2 WSW 6 7 3 4 1020.4 1020.1 0.0
27/08:00am 16.8 16.1 11.9 73 2.7 W 7 13 4 7 1020.1 1019.8 0.0
27/07:30am 16.7 13.8 11.0 69 3.1 W 17 20 9 11 1020.5 1020.3 0.0
27/07:00am 16.7 13.1 9.9 64 3.6 WSW 19 20 10 11 1020.3 1020.0 0.0
27/06:30am 16.6 13.6 9.3 62 3.8 W 15 20 8 11 1019.9 1019.6 0.0
27/06:00am 17.7 16.8 10.8 64 3.7 NNW 6 7 3 4 1018.9 1018.6 0.0
27/05:30am 17.4 17.0 11.2 67 3.4 NE 4 9 2 5 1018.2 1017.9 0.0
27/05:00am 17.2 16.6 11.7 70 3.0 E 6 7 3 4 1018.0 1017.7 0.0
27/04:30am 17.0 14.7 10.6 66 3.4 S 13 17 7 9 1018.0 1017.7 0.0
27/04:00am 16.9 14.9 8.6 58 4.3 SW 9 11 5 6 1018.0 1017.7 0.0
27/03:30am 16.0 13.7 10.5 70 2.9 WSW 13 17 7 9 1018.2 1017.9 0.0
27/03:00am 16.4 13.1 10.9 70 2.9 W 19 22 10 12 1017.9 1017.6 0.0
27/02:30am 16.8 13.0 11.1 69 3.1 W 22 26 12 14 1018.4 1018.1 0.0
27/02:00am 16.8 13.0 11.1 69 3.1 W 22 24 12 13 1018.4 1018.1 0.0
27/01:30am 16.7 13.0 10.3 66 3.4 W 20 24 11 13 1018.3 1018.0 0.0
27/01:00am 16.8 12.9 9.5 62 3.8 W 20 24 11 13 1018.5 1018.2 0.0
27/12:30am 17.3 13.6 9.5 60 4.1 W 19 22 10 12 1018.6 1018.3 0.0
27/12:00am 17.6 13.6 9.0 57 4.5 W 20 24 11 13 1018.7 1018.4 0.0
 
Date/Time
EST
Temp
°C
App
Temp
°C
Dew
Point
°C
Rel
Hum
%
Delta-T
°C
Wind Press
QNH
hPa
Press
MSL
hPa
Rain since
9am
mm
Dir  Spd
km/h
Gust
km/h
Spd
kts
Gust
kts
26/11:30pm 18.3 14.4 9.6 57 4.6 WNW 20 24 11 13 1018.8 1018.5 0.0
26/11:00pm 18.5 14.8 10.3 59 4.4 WNW 20 24 11 13 1018.8 1018.5 0.0
26/10:30pm 17.8 15.3 13.5 76 2.4 W 19 24 10 13 1019.0 1018.7 0.0
26/10:00pm 18.7 15.9 12.7 68 3.4 WNW 19 24 10 13 1018.8 1018.5 0.0
26/09:30pm 19.0 15.7 10.8 59 4.5 WNW 19 22 10 12 1019.1 1018.8 0.0
26/09:00pm 19.1 15.9 9.9 55 4.9 NW 17 20 9 11 1019.1 1018.8 0.0
26/08:30pm 19.0 15.9 10.3 57 4.7 NW 17 20 9 11 1019.2 1018.9 0.0
26/08:00pm 18.7 15.5 9.8 56 4.7 NW 17 24 9 13 1019.3 1019.0 0.0
26/07:30pm 18.5 15.4 10.3 59 4.4 NW 17 20 9 11 1019.0 1018.7 0.0
26/07:00pm 18.5 16.0 9.8 57 4.6 NW 13 20 7 11 1018.7 1018.4 0.0
26/06:30pm 18.5 15.9 9.3 55 4.9 NNW 13 17 7 9 1018.4 1018.1 0.0
26/06:00pm 18.4 16.0 8.7 53 5.0 NNW 11 13 6 7 1017.9 1017.6 0.0
26/05:30pm 18.5 15.7 8.7 53 5.1 NNW 13 17 7 9 1017.6 1017.3 0.0
26/05:00pm 18.9 16.6 9.1 53 5.2 NW 11 13 6 7 1017.3 1017.0 0.0
26/04:30pm 19.4 17.2 9.3 52 5.4 NW 11 15 6 8 1017.2 1016.9 0.0
26/04:00pm 19.9 17.3 7.9 46 6.2 NW 11 15 6 8 1016.8 1016.5 0.0
26/03:30pm 20.0 17.4 9.3 50 5.7 NW 13 17 7 9 1016.5 1016.2 0.0
26/03:00pm 20.6 19.1 9.2 48 6.1 NW 7 11 4 6 1016.5 1016.2 0.0
26/02:30pm 20.9 19.7 9.5 48 6.1 NE 6 13 3 7 1016.7 1016.4 0.0
26/02:00pm 21.0 19.6 9.6 48 6.1 E 7 9 4 5 1016.6 1016.3 0.0
26/01:30pm 20.8 18.8 8.8 46 6.4 E 9 11 5 6 1016.6 1016.3 0.0
26/01:00pm 21.4 19.8 10.3 49 6.1 ESE 9 11 5 6 1016.9 1016.6 0.0
26/12:30pm 21.0 18.9 9.6 48 6.1 SE 11 13 6 7 1017.0 1016.7 0.0
26/12:00pm 20.6 18.4 7.9 44 6.6 WSW 9 13 5 7 1017.6 1017.3 0.0
26/11:30am 20.5 18.2 9.1 48 6.1 WSW 11 17 6 9 1017.8 1017.5 0.0
26/11:00am 19.2 16.2 9.1 52 5.3 WSW 15 20 8 11 1018.1 1017.8 0.0
26/10:30am 18.5 14.7 9.0 54 5.0 WSW 19 26 10 14 1018.5 1018.2 0.0
26/10:00am 17.7 13.3 9.1 57 4.5 W 22 28 12 15 1018.5 1018.2 0.0
26/09:30am 17.3 13.5 9.0 58 4.3 W 19 26 10 14 1018.7 1018.4 0.0
26/09:00am 17.0 12.9 8.7 58 4.3 WSW 20 28 11 15 1018.7 1018.4 0.0
26/08:30am 16.2 12.2 8.9 62 3.8 WSW 20 28 11 15 1018.6 1018.3 0.0
26/08:00am 15.6 11.5 8.8 64 3.5 WSW 20 28 11 15 1018.6 1018.3 0.0
26/07:30am 14.9 10.8 8.6 66 3.2 WSW 20 26 11 14 1018.2 1017.9 0.0
26/07:00am 14.5 9.9 8.2 66 3.2 WSW 22 28 12 15 1017.7 1017.4 0.0
26/06:30am 14.3 9.7 8.3 67 3.0 WSW 22 28 12 15 1017.3 1017.0 0.0
26/06:00am 14.5 9.9 8.2 66 3.2 WSW 22 26 12 14 1016.9 1016.6 0.0
26/05:30am 14.6 10.0 8.1 65 3.3 WSW 22 28 12 15 1016.7 1016.4 0.0
26/05:00am 14.6 10.4 8.1 65 3.3 WSW 20 28 11 15 1016.6 1016.3 0.0
26/04:30am 14.9 10.6 7.9 63 3.5 WSW 20 26 11 14 1016.4 1016.1 0.0
26/04:00am 15.3 10.4 8.3 63 3.5 WSW 24 30 13 16 1016.3 1016.0 0.0
26/03:30am 15.3 10.9 8.8 65 3.3 WSW 22 28 12 15 1016.3 1016.0 0.0
26/03:00am 15.5 11.1 9.0 65 3.3 WSW 22 26 12 14 1016.3 1016.0 0.0
26/02:30am 16.2 11.5 9.4 64 3.5 W 24 30 13 16 1016.5 1016.2 0.0
26/02:00am 16.5 11.9 9.7 64 3.6 W 24 30 13 16 1016.5 1016.2 0.0
26/01:30am 16.6 12.8 9.8 64 3.6 W 20 28 11 15 1016.7 1016.4 0.0
26/01:00am 17.0 12.7 9.4 61 4.0 W 22 30 12 16 1016.8 1016.5 0.0
26/12:30am 17.3 13.0 9.5 60 4.1 W 22 30 12 16 1016.7 1016.4 0.0
26/12:00am 17.6 13.5 10.2 62 3.9 W 22 28 12 15 1016.6 1016.3 0.0
 
Date/Time
EST
Temp
°C
App
Temp
°C
Dew
Point
°C
Rel
Hum
%
Delta-T
°C
Wind Press
QNH
hPa
Press
MSL
hPa
Rain since
9am
mm
Dir  Spd
km/h
Gust
km/h
Spd
kts
Gust
kts
25/11:30pm 17.5 14.4 12.2 71 2.9 W 20 28 11 15 1016.6 1016.3 0.0
25/11:00pm 18.1 14.5 11.7 66 3.5 WNW 22 30 12 16 1016.3 1016.0 0.0
25/10:30pm 18.5 15.5 13.8 74 2.7 NW 22 32 12 17 1016.4 1016.1 0.0
25/10:00pm 18.3 15.5 13.2 72 2.9 WNW 20 28 11 15 1016.5 1016.2 0.0
25/09:30pm 18.9 16.2 13.5 71 3.1 NW 20 32 11 17 1016.6 1016.3 0.0
25/09:00pm 19.1 15.6 12.1 64 3.9 NW 22 30 12 16 1016.4 1016.1 0.0
25/08:30pm 19.1 15.5 11.7 62 4.1 NW 22 30 12 16 1016.2 1015.9 0.0
25/08:00pm 19.0 16.0 11.8 63 4.0 NNW 19 24 10 13 1016.0 1015.7 0.0
25/07:30pm 18.8 16.2 11.9 64 3.8 NNW 17 24 9 13 1015.9 1015.6 0.0
25/07:00pm 18.8 16.5 11.9 64 3.8 NNW 15 19 8 10 1015.8 1015.5 0.0
25/06:30pm 18.8 16.5 11.6 63 4.0 N 15 20 8 11 1015.6 1015.3 0.0
25/06:00pm 18.5 16.4 11.3 63 3.9 NNE 13 17 7 9 1015.2 1014.9 0.0
25/05:30pm 18.5 17.3 11.6 64 3.8 NE 9 13 5 7 1014.8 1014.5 0.0
25/05:00pm 18.6 16.9 11.2 62 4.0 NE 11 15 6 8 1014.7 1014.4 0.0
25/04:30pm 18.9 17.1 11.0 60 4.3 NNE 11 13 6 7 1014.5 1014.2 0.0
25/04:00pm 19.7 18.3 10.9 57 4.8 NNE 9 13 5 7 1014.5 1014.2 0.0
25/03:30pm 19.7 18.9 11.2 58 4.7 ENE 6 9 3 5 1014.2 1013.9 0.0

Other formats

Comma delimited format used in spreadsheet applications
http://www.bom.gov.au/fwo/IDQ60801/IDQ60801.94594.axf

JavaScript Object Notation format (JSON) in row-major order
http://www.bom.gov.au/fwo/IDQ60801/IDQ60801.94594.json

Data quality

Most of these data are generated automatically and are frequently updated. Quality checks on data are not normally performed. It is possible for incorrect values to appear. Refer to information at About Latest Weather Observations and please check the disclaimer before using these data.